sensor_id;sensor_type;location;lat;lon;timestamp;temperature;humidity
59857;DHT22;45733;52.668;6.860;2022-07-01T00:02:11;15.80;99.90
59857;DHT22;45733;52.668;6.860;2022-07-01T00:04:38;15.70;99.90
59857;DHT22;45733;52.668;6.860;2022-07-01T00:07:04;15.70;99.90
59857;DHT22;45733;52.668;6.860;2022-07-01T00:09:30;15.80;99.90
59857;DHT22;45733;52.668;6.860;2022-07-01T00:11:56;15.80;99.90
59857;DHT22;45733;52.668;6.860;2022-07-01T00:14:21;15.80;99.90
59857;DHT22;45733;52.668;6.860;2022-07-01T00:16:48;15.80;99.90
59857;DHT22;45733;52.668;6.860;2022-07-01T00:19:14;15.80;99.90
59857;DHT22;45733;52.668;6.860;2022-07-01T00:21:40;15.80;99.90
59857;DHT22;45733;52.668;6.860;2022-07-01T00:24:06;15.70;99.90
59857;DHT22;45733;52.668;6.860;2022-07-01T00:26:32;15.80;99.90
59857;DHT22;45733;52.668;6.860;2022-07-01T00:28:57;15.80;99.90
59857;DHT22;45733;52.668;6.860;2022-07-01T00:31:23;15.80;99.90
59857;DHT22;45733;52.668;6.860;2022-07-01T00:33:49;15.80;99.90
59857;DHT22;45733;52.668;6.860;2022-07-01T00:36:15;15.80;99.90
59857;DHT22;45733;52.668;6.860;2022-07-01T00:38:40;15.80;99.90
59857;DHT22;45733;52.668;6.860;2022-07-01T00:41:06;15.70;99.90
59857;DHT22;45733;52.668;6.860;2022-07-01T00:43:35;15.70;99.90
59857;DHT22;45733;52.668;6.860;2022-07-01T00:46:03;15.70;99.90
59857;DHT22;45733;52.668;6.860;2022-07-01T00:48:30;15.70;99.90
59857;DHT22;45733;52.668;6.860;2022-07-01T00:50:57;15.70;99.90
59857;DHT22;45733;52.668;6.860;2022-07-01T00:53:23;15.80;99.90
59857;DHT22;45733;52.668;6.860;2022-07-01T00:55:49;15.80;99.90
59857;DHT22;45733;52.668;6.860;2022-07-01T00:58:15;15.80;99.90
59857;DHT22;45733;52.668;6.860;2022-07-01T01:00:40;15.80;99.90
59857;DHT22;45733;52.668;6.860;2022-07-01T01:03:06;15.80;99.90
59857;DHT22;45733;52.668;6.860;2022-07-01T01:05:33;15.70;99.90
59857;DHT22;45733;52.668;6.860;2022-07-01T01:07:59;15.70;99.90
59857;DHT22;45733;52.668;6.860;2022-07-01T01:10:25;15.70;99.90
59857;DHT22;45733;52.668;6.860;2022-07-01T01:12:51;15.70;99.90
59857;DHT22;45733;52.668;6.860;2022-07-01T01:15:18;15.70;99.90
59857;DHT22;45733;52.668;6.860;2022-07-01T01:17:43;15.80;99.90
59857;DHT22;45733;52.668;6.860;2022-07-01T01:20:14;15.80;99.90
59857;DHT22;45733;52.668;6.860;2022-07-01T01:22:40;15.80;99.90
59857;DHT22;45733;52.668;6.860;2022-07-01T01:25:05;15.80;99.90
59857;DHT22;45733;52.668;6.860;2022-07-01T01:27:31;15.80;99.90
59857;DHT22;45733;52.668;6.860;2022-07-01T01:29:57;15.80;99.90
59857;DHT22;45733;52.668;6.860;2022-07-01T01:32:26;15.70;99.90
59857;DHT22;45733;52.668;6.860;2022-07-01T01:34:54;15.70;99.90
59857;DHT22;45733;52.668;6.860;2022-07-01T01:37:20;15.70;99.90
59857;DHT22;45733;52.668;6.860;2022-07-01T01:39:48;15.70;99.90
59857;DHT22;45733;52.668;6.860;2022-07-01T01:42:14;15.70;99.90
59857;DHT22;45733;52.668;6.860;2022-07-01T01:44:40;15.70;99.90
59857;DHT22;45733;52.668;6.860;2022-07-01T01:47:05;15.70;99.90
59857;DHT22;45733;52.668;6.860;2022-07-01T01:49:31;15.70;99.90
59857;DHT22;45733;52.668;6.860;2022-07-01T01:51:57;15.80;99.90
59857;DHT22;45733;52.668;6.860;2022-07-01T01:54:27;15.80;99.90
59857;DHT22;45733;52.668;6.860;2022-07-01T01:56:53;15.90;99.90
59857;DHT22;45733;52.668;6.860;2022-07-01T01:59:19;15.90;99.90
59857;DHT22;45733;52.668;6.860;2022-07-01T02:01:45;15.80;99.90
59857;DHT22;45733;52.668;6.860;2022-07-01T02:04:10;15.90;99.90
59857;DHT22;45733;52.668;6.860;2022-07-01T02:06:36;15.90;99.90
59857;DHT22;45733;52.668;6.860;2022-07-01T02:09:02;15.90;99.90
59857;DHT22;45733;52.668;6.860;2022-07-01T02:11:28;15.90;99.90
59857;DHT22;45733;52.668;6.860;2022-07-01T02:13:54;15.90;99.90
59857;DHT22;45733;52.668;6.860;2022-07-01T02:16:20;15.80;99.90
59857;DHT22;45733;52.668;6.860;2022-07-01T02:18:45;15.80;99.90
59857;DHT22;45733;52.668;6.860;2022-07-01T02:21:11;15.70;99.90
59857;DHT22;45733;52.668;6.860;2022-07-01T02:23:37;15.70;99.90
59857;DHT22;45733;52.668;6.860;2022-07-01T02:26:03;15.80;99.90
59857;DHT22;45733;52.668;6.860;2022-07-01T02:28:29;15.60;99.90
59857;DHT22;45733;52.668;6.860;2022-07-01T02:30:54;15.70;99.90
59857;DHT22;45733;52.668;6.860;2022-07-01T02:33:20;15.70;99.90
59857;DHT22;45733;52.668;6.860;2022-07-01T02:35:47;15.70;99.90
59857;DHT22;45733;52.668;6.860;2022-07-01T02:38:12;15.60;99.90
59857;DHT22;45733;52.668;6.860;2022-07-01T02:40:38;15.60;99.90
59857;DHT22;45733;52.668;6.860;2022-07-01T02:43:05;15.60;99.90
59857;DHT22;45733;52.668;6.860;2022-07-01T02:45:31;15.60;99.90
59857;DHT22;45733;52.668;6.860;2022-07-01T02:47:57;15.50;99.90
59857;DHT22;45733;52.668;6.860;2022-07-01T02:50:22;15.50;99.90
59857;DHT22;45733;52.668;6.860;2022-07-01T02:52:48;15.50;99.90
59857;DHT22;45733;52.668;6.860;2022-07-01T02:55:14;15.50;99.90
59857;DHT22;45733;52.668;6.860;2022-07-01T02:57:40;15.50;99.90
59857;DHT22;45733;52.668;6.860;2022-07-01T03:00:07;15.50;99.90
59857;DHT22;45733;52.668;6.860;2022-07-01T03:02:33;15.50;99.90
59857;DHT22;45733;52.668;6.860;2022-07-01T03:04:59;15.40;99.90
59857;DHT22;45733;52.668;6.860;2022-07-01T03:07:25;15.40;99.90
59857;DHT22;45733;52.668;6.860;2022-07-01T03:09:51;15.40;99.90
59857;DHT22;45733;52.668;6.860;2022-07-01T03:12:17;15.40;99.90
59857;DHT22;45733;52.668;6.860;2022-07-01T03:15:08;15.30;99.90
59857;DHT22;45733;52.668;6.860;2022-07-01T03:17:35;15.30;99.90
59857;DHT22;45733;52.668;6.860;2022-07-01T03:20:01;15.30;99.90
59857;DHT22;45733;52.668;6.860;2022-07-01T03:22:28;15.30;99.90
59857;DHT22;45733;52.668;6.860;2022-07-01T03:24:54;15.30;99.90
59857;DHT22;45733;52.668;6.860;2022-07-01T03:27:20;15.30;99.90
59857;DHT22;45733;52.668;6.860;2022-07-01T03:29:46;15.30;99.90
59857;DHT22;45733;52.668;6.860;2022-07-01T03:32:12;15.30;99.90
59857;DHT22;45733;52.668;6.860;2022-07-01T03:34:41;15.30;99.90
59857;DHT22;45733;52.668;6.860;2022-07-01T03:37:09;15.30;99.90
59857;DHT22;45733;52.668;6.860;2022-07-01T03:39:35;15.20;99.90
59857;DHT22;45733;52.668;6.860;2022-07-01T03:42:02;15.20;99.90
59857;DHT22;45733;52.668;6.860;2022-07-01T03:44:27;15.20;99.90
59857;DHT22;45733;52.668;6.860;2022-07-01T03:46:54;15.20;99.90
59857;DHT22;45733;52.668;6.860;2022-07-01T03:49:20;15.20;99.90
59857;DHT22;45733;52.668;6.860;2022-07-01T03:51:46;15.30;99.90
59857;DHT22;45733;52.668;6.860;2022-07-01T03:54:11;15.20;99.90
59857;DHT22;45733;52.668;6.860;2022-07-01T03:56:59;15.20;99.90
59857;DHT22;45733;52.668;6.860;2022-07-01T03:59:26;15.20;99.90
59857;DHT22;45733;52.668;6.860;2022-07-01T04:01:52;15.10;99.90
59857;DHT22;45733;52.668;6.860;2022-07-01T04:04:18;15.10;99.90
59857;DHT22;45733;52.668;6.860;2022-07-01T04:06:44;15.10;99.90
59857;DHT22;45733;52.668;6.860;2022-07-01T04:09:10;15.20;99.90
59857;DHT22;45733;52.668;6.860;2022-07-01T04:11:37;15.10;99.90
59857;DHT22;45733;52.668;6.860;2022-07-01T04:14:03;15.20;99.90
59857;DHT22;45733;52.668;6.860;2022-07-01T04:16:29;15.20;99.90
59857;DHT22;45733;52.668;6.860;2022-07-01T04:18:55;15.10;99.90
59857;DHT22;45733;52.668;6.860;2022-07-01T04:21:21;15.10;99.90
59857;DHT22;45733;52.668;6.860;2022-07-01T04:24:06;15.10;99.90
59857;DHT22;45733;52.668;6.860;2022-07-01T04:26:32;15.10;99.90
59857;DHT22;45733;52.668;6.860;2022-07-01T04:28:58;15.10;99.90
59857;DHT22;45733;52.668;6.860;2022-07-01T04:31:24;15.10;99.90
59857;DHT22;45733;52.668;6.860;2022-07-01T04:33:49;15.10;99.90
59857;DHT22;45733;52.668;6.860;2022-07-01T04:36:16;15.10;99.90
59857;DHT22;45733;52.668;6.860;2022-07-01T04:38:41;15.20;99.90
59857;DHT22;45733;52.668;6.860;2022-07-01T04:41:07;15.10;99.90
59857;DHT22;45733;52.668;6.860;2022-07-01T04:43:51;15.10;99.90
59857;DHT22;45733;52.668;6.860;2022-07-01T04:46:17;15.00;99.90
59857;DHT22;45733;52.668;6.860;2022-07-01T04:48:42;15.00;99.90
59857;DHT22;45733;52.668;6.860;2022-07-01T04:51:08;15.10;99.90
59857;DHT22;45733;52.668;6.860;2022-07-01T04:53:34;15.10;99.90
59857;DHT22;45733;52.668;6.860;2022-07-01T04:56:00;15.10;99.90
59857;DHT22;45733;52.668;6.860;2022-07-01T04:58:26;15.00;99.90
59857;DHT22;45733;52.668;6.860;2022-07-01T05:00:52;15.00;99.90
59857;DHT22;45733;52.668;6.860;2022-07-01T05:03:18;15.10;99.90
59857;DHT22;45733;52.668;6.860;2022-07-01T05:05:43;15.00;99.90
59857;DHT22;45733;52.668;6.860;2022-07-01T05:08:09;15.00;99.90
59857;DHT22;45733;52.668;6.860;2022-07-01T05:10:35;15.10;99.90
59857;DHT22;45733;52.668;6.860;2022-07-01T05:13:00;15.10;99.90
59857;DHT22;45733;52.668;6.860;2022-07-01T05:15:26;15.10;99.90
59857;DHT22;45733;52.668;6.860;2022-07-01T05:17:52;15.20;99.90
59857;DHT22;45733;52.668;6.860;2022-07-01T05:20:36;15.20;99.90
59857;DHT22;45733;52.668;6.860;2022-07-01T05:23:20;15.20;99.90
59857;DHT22;45733;52.668;6.860;2022-07-01T05:25:46;15.20;99.90
59857;DHT22;45733;52.668;6.860;2022-07-01T05:28:12;15.20;99.90
59857;DHT22;45733;52.668;6.860;2022-07-01T05:30:38;15.30;99.90
59857;DHT22;45733;52.668;6.860;2022-07-01T05:33:04;15.30;99.90
59857;DHT22;45733;52.668;6.860;2022-07-01T05:35:29;15.30;99.90
59857;DHT22;45733;52.668;6.860;2022-07-01T05:37:56;15.40;99.90
59857;DHT22;45733;52.668;6.860;2022-07-01T05:40:22;15.40;99.90
59857;DHT22;45733;52.668;6.860;2022-07-01T05:42:48;15.50;99.90
59857;DHT22;45733;52.668;6.860;2022-07-01T05:45:13;15.50;99.90
59857;DHT22;45733;52.668;6.860;2022-07-01T05:47:39;15.50;99.90
59857;DHT22;45733;52.668;6.860;2022-07-01T05:50:05;15.50;99.90
59857;DHT22;45733;52.668;6.860;2022-07-01T05:52:31;15.60;99.90
59857;DHT22;45733;52.668;6.860;2022-07-01T05:54:56;15.70;99.90
59857;DHT22;45733;52.668;6.860;2022-07-01T05:57:22;15.50;99.90
59857;DHT22;45733;52.668;6.860;2022-07-01T05:59:48;15.60;99.90
59857;DHT22;45733;52.668;6.860;2022-07-01T06:02:14;15.60;99.90
59857;DHT22;45733;52.668;6.860;2022-07-01T06:04:39;15.70;99.90
59857;DHT22;45733;52.668;6.860;2022-07-01T06:07:08;15.70;99.90
59857;DHT22;45733;52.668;6.860;2022-07-01T06:09:38;15.70;99.90
59857;DHT22;45733;52.668;6.860;2022-07-01T06:12:10;15.90;99.90
59857;DHT22;45733;52.668;6.860;2022-07-01T06:14:36;15.90;99.90
59857;DHT22;45733;52.668;6.860;2022-07-01T06:17:03;15.90;99.90
59857;DHT22;45733;52.668;6.860;2022-07-01T06:19:29;16.00;99.90
59857;DHT22;45733;52.668;6.860;2022-07-01T06:21:55;16.00;99.90
59857;DHT22;45733;52.668;6.860;2022-07-01T06:24:21;15.90;99.90
59857;DHT22;45733;52.668;6.860;2022-07-01T06:26:47;16.00;99.90
59857;DHT22;45733;52.668;6.860;2022-07-01T06:29:13;15.90;99.90
59857;DHT22;45733;52.668;6.860;2022-07-01T06:31:39;16.10;99.90
59857;DHT22;45733;52.668;6.860;2022-07-01T06:34:05;16.10;99.90
59857;DHT22;45733;52.668;6.860;2022-07-01T06:36:30;16.30;99.90
59857;DHT22;45733;52.668;6.860;2022-07-01T06:38:56;16.40;99.90
59857;DHT22;45733;52.668;6.860;2022-07-01T06:41:22;16.30;99.90
59857;DHT22;45733;52.668;6.860;2022-07-01T06:43:54;16.30;99.90
59857;DHT22;45733;52.668;6.860;2022-07-01T06:46:20;16.30;99.90
59857;DHT22;45733;52.668;6.860;2022-07-01T06:48:46;16.30;99.90
59857;DHT22;45733;52.668;6.860;2022-07-01T06:51:12;16.10;99.90
59857;DHT22;45733;52.668;6.860;2022-07-01T06:53:37;16.10;99.90
59857;DHT22;45733;52.668;6.860;2022-07-01T06:56:03;16.00;99.90
59857;DHT22;45733;52.668;6.860;2022-07-01T06:58:29;16.00;99.90
59857;DHT22;45733;52.668;6.860;2022-07-01T07:00:55;15.90;99.90
59857;DHT22;45733;52.668;6.860;2022-07-01T07:03:20;16.00;99.90
59857;DHT22;45733;52.668;6.860;2022-07-01T07:05:46;15.90;99.90
59857;DHT22;45733;52.668;6.860;2022-07-01T07:08:12;15.90;99.90
59857;DHT22;45733;52.668;6.860;2022-07-01T07:10:38;15.90;99.90
59857;DHT22;45733;52.668;6.860;2022-07-01T07:13:03;15.90;99.90
59857;DHT22;45733;52.668;6.860;2022-07-01T07:15:29;15.90;99.90
59857;DHT22;45733;52.668;6.860;2022-07-01T07:17:56;16.00;99.90
59857;DHT22;45733;52.668;6.860;2022-07-01T07:20:23;16.10;99.90
59857;DHT22;45733;52.668;6.860;2022-07-01T07:22:49;16.20;99.90
59857;DHT22;45733;52.668;6.860;2022-07-01T07:25:15;16.20;99.90
59857;DHT22;45733;52.668;6.860;2022-07-01T07:27:41;16.30;99.90
59857;DHT22;45733;52.668;6.860;2022-07-01T07:30:06;16.30;99.90
59857;DHT22;45733;52.668;6.860;2022-07-01T07:32:32;16.50;99.90
59857;DHT22;45733;52.668;6.860;2022-07-01T07:34:58;16.40;99.90
59857;DHT22;45733;52.668;6.860;2022-07-01T07:37:24;16.50;99.90
59857;DHT22;45733;52.668;6.860;2022-07-01T07:39:50;16.60;99.90
59857;DHT22;45733;52.668;6.860;2022-07-01T07:42:15;16.70;99.90
59857;DHT22;45733;52.668;6.860;2022-07-01T07:44:41;17.00;99.90
59857;DHT22;45733;52.668;6.860;2022-07-01T07:47:07;17.60;99.90
59857;DHT22;45733;52.668;6.860;2022-07-01T07:49:32;17.60;99.90
59857;DHT22;45733;52.668;6.860;2022-07-01T07:51:58;17.60;99.90
59857;DHT22;45733;52.668;6.860;2022-07-01T07:54:24;17.40;99.90
59857;DHT22;45733;52.668;6.860;2022-07-01T07:56:49;17.50;99.90
59857;DHT22;45733;52.668;6.860;2022-07-01T07:59:15;17.50;99.90
59857;DHT22;45733;52.668;6.860;2022-07-01T08:01:41;17.50;99.90
59857;DHT22;45733;52.668;6.860;2022-07-01T08:04:06;17.30;99.90
59857;DHT22;45733;52.668;6.860;2022-07-01T08:06:32;17.30;99.90
59857;DHT22;45733;52.668;6.860;2022-07-01T08:08:58;17.10;99.90
59857;DHT22;45733;52.668;6.860;2022-07-01T08:11:24;17.10;99.90
59857;DHT22;45733;52.668;6.860;2022-07-01T08:13:49;17.20;99.90
59857;DHT22;45733;52.668;6.860;2022-07-01T08:16:15;17.60;99.90
59857;DHT22;45733;52.668;6.860;2022-07-01T08:18:41;17.70;99.90
59857;DHT22;45733;52.668;6.860;2022-07-01T08:21:06;18.40;99.90
59857;DHT22;45733;52.668;6.860;2022-07-01T08:23:32;19.20;99.90
59857;DHT22;45733;52.668;6.860;2022-07-01T08:25:58;19.30;99.90
59857;DHT22;45733;52.668;6.860;2022-07-01T08:28:24;19.60;99.90
59857;DHT22;45733;52.668;6.860;2022-07-01T08:30:49;19.40;99.90
59857;DHT22;45733;52.668;6.860;2022-07-01T08:33:15;19.20;99.90
59857;DHT22;45733;52.668;6.860;2022-07-01T08:35:41;19.60;99.90
59857;DHT22;45733;52.668;6.860;2022-07-01T08:38:06;19.60;99.90
59857;DHT22;45733;52.668;6.860;2022-07-01T08:40:32;19.30;99.90
59857;DHT22;45733;52.668;6.860;2022-07-01T08:42:59;19.60;99.90
59857;DHT22;45733;52.668;6.860;2022-07-01T08:45:25;19.80;99.90
59857;DHT22;45733;52.668;6.860;2022-07-01T08:47:52;20.40;99.90
59857;DHT22;45733;52.668;6.860;2022-07-01T08:50:21;20.00;99.90
59857;DHT22;45733;52.668;6.860;2022-07-01T08:52:46;19.70;99.90
59857;DHT22;45733;52.668;6.860;2022-07-01T08:55:12;19.40;99.90
59857;DHT22;45733;52.668;6.860;2022-07-01T08:57:38;19.90;99.90
59857;DHT22;45733;52.668;6.860;2022-07-01T09:00:04;20.40;99.90
59857;DHT22;45733;52.668;6.860;2022-07-01T09:05:16;20.60;99.90
59857;DHT22;45733;52.668;6.860;2022-07-01T09:07:41;20.80;99.90
59857;DHT22;45733;52.668;6.860;2022-07-01T09:10:17;20.60;99.90
59857;DHT22;45733;52.668;6.860;2022-07-01T09:12:44;20.40;99.90
59857;DHT22;45733;52.668;6.860;2022-07-01T09:17:44;20.10;99.90
59857;DHT22;45733;52.668;6.860;2022-07-01T09:20:22;19.90;99.90
59857;DHT22;45733;52.668;6.860;2022-07-01T09:22:58;19.80;99.90
59857;DHT22;45733;52.668;6.860;2022-07-01T09:25:27;19.60;99.90
59857;DHT22;45733;52.668;6.860;2022-07-01T09:28:07;19.50;99.90
59857;DHT22;45733;52.668;6.860;2022-07-01T09:30:33;19.50;99.90
59857;DHT22;45733;52.668;6.860;2022-07-01T09:35:31;19.40;99.90
59857;DHT22;45733;52.668;6.860;2022-07-01T09:37:57;19.20;99.90
59857;DHT22;45733;52.668;6.860;2022-07-01T09:40:22;19.20;99.90
59857;DHT22;45733;52.668;6.860;2022-07-01T09:42:48;19.00;99.90
59857;DHT22;45733;52.668;6.860;2022-07-01T09:45:14;19.00;99.90
59857;DHT22;45733;52.668;6.860;2022-07-01T09:47:41;18.90;99.90
59857;DHT22;45733;52.668;6.860;2022-07-01T09:50:10;19.10;99.90
59857;DHT22;45733;52.668;6.860;2022-07-01T09:52:36;19.20;99.90
59857;DHT22;45733;52.668;6.860;2022-07-01T09:55:02;19.30;99.90
59857;DHT22;45733;52.668;6.860;2022-07-01T09:57:27;19.30;99.90
59857;DHT22;45733;52.668;6.860;2022-07-01T09:59:54;19.80;99.90
59857;DHT22;45733;52.668;6.860;2022-07-01T10:02:21;20.60;99.90
59857;DHT22;45733;52.668;6.860;2022-07-01T10:04:53;20.80;99.90
59857;DHT22;45733;52.668;6.860;2022-07-01T10:14:45;20.40;99.90
59857;DHT22;45733;52.668;6.860;2022-07-01T10:17:25;20.40;99.90
59857;DHT22;45733;52.668;6.860;2022-07-01T10:19:54;20.70;99.90
59857;DHT22;45733;52.668;6.860;2022-07-01T10:22:27;20.70;99.90
59857;DHT22;45733;52.668;6.860;2022-07-01T10:24:53;20.70;99.90
59857;DHT22;45733;52.668;6.860;2022-07-01T10:27:21;21.50;99.90
59857;DHT22;45733;52.668;6.860;2022-07-01T10:29:47;22.20;99.90
59857;DHT22;45733;52.668;6.860;2022-07-01T10:34:48;22.30;99.90
59857;DHT22;45733;52.668;6.860;2022-07-01T10:37:15;22.00;99.90
59857;DHT22;45733;52.668;6.860;2022-07-01T10:42:20;21.10;99.90
59857;DHT22;45733;52.668;6.860;2022-07-01T10:45:08;20.90;99.90
59857;DHT22;45733;52.668;6.860;2022-07-01T10:47:34;20.90;99.90
59857;DHT22;45733;52.668;6.860;2022-07-01T10:52:29;21.60;99.90
59857;DHT22;45733;52.668;6.860;2022-07-01T10:54:55;21.90;99.90
59857;DHT22;45733;52.668;6.860;2022-07-01T10:57:22;21.90;99.90
59857;DHT22;45733;52.668;6.860;2022-07-01T11:02:26;22.00;99.90
59857;DHT22;45733;52.668;6.860;2022-07-01T11:04:54;22.20;99.90
59857;DHT22;45733;52.668;6.860;2022-07-01T11:07:20;22.30;99.90
59857;DHT22;45733;52.668;6.860;2022-07-01T11:09:46;22.20;99.90
59857;DHT22;45733;52.668;6.860;2022-07-01T11:12:14;22.20;99.90
59857;DHT22;45733;52.668;6.860;2022-07-01T11:14:40;22.00;99.90
59857;DHT22;45733;52.668;6.860;2022-07-01T11:17:07;21.90;99.90
59857;DHT22;45733;52.668;6.860;2022-07-01T11:19:33;22.10;99.90
59857;DHT22;45733;52.668;6.860;2022-07-01T11:21:59;21.80;99.90
59857;DHT22;45733;52.668;6.860;2022-07-01T11:24:25;21.50;99.90
59857;DHT22;45733;52.668;6.860;2022-07-01T11:26:50;21.40;99.90
59857;DHT22;45733;52.668;6.860;2022-07-01T11:29:27;21.70;99.90
59857;DHT22;45733;52.668;6.860;2022-07-01T11:31:52;21.20;99.90
59857;DHT22;45733;52.668;6.860;2022-07-01T11:34:18;21.50;99.90
59857;DHT22;45733;52.668;6.860;2022-07-01T11:36:44;21.50;99.90
59857;DHT22;45733;52.668;6.860;2022-07-01T11:39:29;21.80;99.90
59857;DHT22;45733;52.668;6.860;2022-07-01T11:41:59;21.60;99.90
59857;DHT22;45733;52.668;6.860;2022-07-01T11:46:55;21.10;99.90
59857;DHT22;45733;52.668;6.860;2022-07-01T11:49:20;21.30;99.90
59857;DHT22;45733;52.668;6.860;2022-07-01T11:51:59;21.50;99.90
59857;DHT22;45733;52.668;6.860;2022-07-01T11:54:25;21.40;99.90
59857;DHT22;45733;52.668;6.860;2022-07-01T11:56:51;21.70;99.90
59857;DHT22;45733;52.668;6.860;2022-07-01T11:59:17;21.60;99.90
59857;DHT22;45733;52.668;6.860;2022-07-01T12:01:49;21.60;99.90
59857;DHT22;45733;52.668;6.860;2022-07-01T12:04:15;21.40;99.90
59857;DHT22;45733;52.668;6.860;2022-07-01T12:06:41;21.50;99.90
59857;DHT22;45733;52.668;6.860;2022-07-01T12:09:17;22.20;99.90
59857;DHT22;45733;52.668;6.860;2022-07-01T12:11:47;21.80;99.90
59857;DHT22;45733;52.668;6.860;2022-07-01T12:14:26;22.70;99.90
59857;DHT22;45733;52.668;6.860;2022-07-01T12:16:53;22.80;99.90
59857;DHT22;45733;52.668;6.860;2022-07-01T12:19:20;22.30;99.90
59857;DHT22;45733;52.668;6.860;2022-07-01T12:21:50;22.20;99.90
59857;DHT22;45733;52.668;6.860;2022-07-01T12:24:16;21.90;99.90
59857;DHT22;45733;52.668;6.860;2022-07-01T12:26:50;21.90;99.90
59857;DHT22;45733;52.668;6.860;2022-07-01T12:29:20;21.80;99.90
59857;DHT22;45733;52.668;6.860;2022-07-01T12:32:05;22.60;99.90
59857;DHT22;45733;52.668;6.860;2022-07-01T12:37:13;22.60;99.90
59857;DHT22;45733;52.668;6.860;2022-07-01T12:39:49;23.10;99.90
59857;DHT22;45733;52.668;6.860;2022-07-01T12:44:50;23.60;99.90
59857;DHT22;45733;52.668;6.860;2022-07-01T12:47:17;23.70;99.90
59857;DHT22;45733;52.668;6.860;2022-07-01T12:49:43;23.80;99.90
59857;DHT22;45733;52.668;6.860;2022-07-01T12:52:22;23.50;99.90
59857;DHT22;45733;52.668;6.860;2022-07-01T12:54:50;22.90;99.90
59857;DHT22;45733;52.668;6.860;2022-07-01T12:57:16;23.50;99.90
59857;DHT22;45733;52.668;6.860;2022-07-01T12:59:42;23.20;99.90
59857;DHT22;45733;52.668;6.860;2022-07-01T13:02:08;22.60;99.90
59857;DHT22;45733;52.668;6.860;2022-07-01T13:04:34;22.20;99.90
59857;DHT22;45733;52.668;6.860;2022-07-01T13:07:00;22.10;99.90
59857;DHT22;45733;52.668;6.860;2022-07-01T13:09:25;22.40;99.90
59857;DHT22;45733;52.668;6.860;2022-07-01T13:11:51;22.80;99.90
59857;DHT22;45733;52.668;6.860;2022-07-01T13:14:16;23.00;99.90
59857;DHT22;45733;52.668;6.860;2022-07-01T13:16:42;22.90;99.90
59857;DHT22;45733;52.668;6.860;2022-07-01T13:19:08;22.30;99.90
59857;DHT22;45733;52.668;6.860;2022-07-01T13:21:33;21.80;99.90
59857;DHT22;45733;52.668;6.860;2022-07-01T13:24:05;21.20;99.90
59857;DHT22;45733;52.668;6.860;2022-07-01T13:26:31;21.40;99.90
59857;DHT22;45733;52.668;6.860;2022-07-01T13:28:57;21.50;99.90
59857;DHT22;45733;52.668;6.860;2022-07-01T13:31:22;21.40;99.90
59857;DHT22;45733;52.668;6.860;2022-07-01T13:33:48;22.10;99.90
59857;DHT22;45733;52.668;6.860;2022-07-01T13:36:14;22.20;99.90
59857;DHT22;45733;52.668;6.860;2022-07-01T13:38:40;21.70;99.90
59857;DHT22;45733;52.668;6.860;2022-07-01T13:41:06;22.40;99.90
59857;DHT22;45733;52.668;6.860;2022-07-01T13:43:33;23.00;99.90
59857;DHT22;45733;52.668;6.860;2022-07-01T13:45:58;23.10;99.90
59857;DHT22;45733;52.668;6.860;2022-07-01T13:48:24;23.20;99.90
59857;DHT22;45733;52.668;6.860;2022-07-01T13:50:50;23.40;99.90
59857;DHT22;45733;52.668;6.860;2022-07-01T13:53:16;23.60;99.90
59857;DHT22;45733;52.668;6.860;2022-07-01T13:55:41;23.00;99.90
59857;DHT22;45733;52.668;6.860;2022-07-01T13:58:09;22.40;99.90
59857;DHT22;45733;52.668;6.860;2022-07-01T14:00:35;22.20;99.90
59857;DHT22;45733;52.668;6.860;2022-07-01T14:03:01;21.90;99.90
59857;DHT22;45733;52.668;6.860;2022-07-01T14:05:26;22.20;99.90
59857;DHT22;45733;52.668;6.860;2022-07-01T14:07:52;22.40;99.90
59857;DHT22;45733;52.668;6.860;2022-07-01T14:10:18;22.50;99.90
59857;DHT22;45733;52.668;6.860;2022-07-01T14:12:43;22.40;99.90
59857;DHT22;45733;52.668;6.860;2022-07-01T14:15:09;22.30;99.90
59857;DHT22;45733;52.668;6.860;2022-07-01T14:17:35;22.20;99.90
59857;DHT22;45733;52.668;6.860;2022-07-01T14:20:01;21.80;99.90
59857;DHT22;45733;52.668;6.860;2022-07-01T14:22:26;22.50;99.90
59857;DHT22;45733;52.668;6.860;2022-07-01T14:24:52;23.20;99.90
59857;DHT22;45733;52.668;6.860;2022-07-01T14:27:18;23.50;99.90
59857;DHT22;45733;52.668;6.860;2022-07-01T14:29:44;23.10;99.90
59857;DHT22;45733;52.668;6.860;2022-07-01T14:32:10;22.30;99.90
59857;DHT22;45733;52.668;6.860;2022-07-01T14:34:39;22.40;99.90
59857;DHT22;45733;52.668;6.860;2022-07-01T14:37:04;23.00;99.90
59857;DHT22;45733;52.668;6.860;2022-07-01T14:39:31;23.10;99.90
59857;DHT22;45733;52.668;6.860;2022-07-01T14:41:58;23.00;99.90
59857;DHT22;45733;52.668;6.860;2022-07-01T14:44:24;22.90;99.90
59857;DHT22;45733;52.668;6.860;2022-07-01T14:46:49;22.40;99.90
59857;DHT22;45733;52.668;6.860;2022-07-01T14:49:16;22.00;99.90
59857;DHT22;45733;52.668;6.860;2022-07-01T14:51:43;21.60;99.90
59857;DHT22;45733;52.668;6.860;2022-07-01T14:54:26;21.40;99.90
59857;DHT22;45733;52.668;6.860;2022-07-01T14:56:52;21.80;99.90
59857;DHT22;45733;52.668;6.860;2022-07-01T14:59:18;22.00;99.90
59857;DHT22;45733;52.668;6.860;2022-07-01T15:01:44;21.80;99.90
59857;DHT22;45733;52.668;6.860;2022-07-01T15:04:09;22.50;99.90
59857;DHT22;45733;52.668;6.860;2022-07-01T15:06:35;22.80;99.90
59857;DHT22;45733;52.668;6.860;2022-07-01T15:09:01;23.20;99.90
59857;DHT22;45733;52.668;6.860;2022-07-01T15:14:48;22.90;99.90
59857;DHT22;45733;52.668;6.860;2022-07-01T15:17:14;22.50;99.90
59857;DHT22;45733;52.668;6.860;2022-07-01T15:19:40;22.30;99.90
59857;DHT22;45733;52.668;6.860;2022-07-01T15:22:06;22.80;99.90
59857;DHT22;45733;52.668;6.860;2022-07-01T15:24:35;23.10;99.90
59857;DHT22;45733;52.668;6.860;2022-07-01T15:27:01;22.90;99.90
59857;DHT22;45733;52.668;6.860;2022-07-01T15:29:27;22.10;99.90
59857;DHT22;45733;52.668;6.860;2022-07-01T15:31:53;22.10;99.90
59857;DHT22;45733;52.668;6.860;2022-07-01T15:34:19;22.30;99.90
59857;DHT22;45733;52.668;6.860;2022-07-01T15:36:45;22.60;99.90
59857;DHT22;45733;52.668;6.860;2022-07-01T15:39:11;22.80;99.90
59857;DHT22;45733;52.668;6.860;2022-07-01T15:41:37;22.70;99.90
59857;DHT22;45733;52.668;6.860;2022-07-01T15:44:03;22.40;99.90
59857;DHT22;45733;52.668;6.860;2022-07-01T15:46:30;21.90;99.90
59857;DHT22;45733;52.668;6.860;2022-07-01T15:48:56;22.30;99.90
59857;DHT22;45733;52.668;6.860;2022-07-01T15:51:21;22.20;99.90
59857;DHT22;45733;52.668;6.860;2022-07-01T15:53:49;22.30;99.90
59857;DHT22;45733;52.668;6.860;2022-07-01T15:56:15;22.30;99.90
59857;DHT22;45733;52.668;6.860;2022-07-01T15:58:41;22.00;99.90
59857;DHT22;45733;52.668;6.860;2022-07-01T16:01:07;21.40;99.90
59857;DHT22;45733;52.668;6.860;2022-07-01T16:03:33;21.00;99.90
59857;DHT22;45733;52.668;6.860;2022-07-01T16:06:02;20.80;99.90